Time;durP1;ratioP1;P1;durP2;ratioP2;P2;SDS_P1;SDS_P2;PMS_P1;PMS_P2;Temp;Humidity;BMP_temperature;BMP_pressure;BME280_temperature;BME280_humidity;BME280_pressure;Samples;Min_cycle;Max_cycle;Signal;HPM_P1;HPM_P2
2022/12/27 00:00:05;;;;;;;;;;;7.40;99.90;;;;;;5012277;28;20450;-94
2022/12/27 00:02:40;;;;;;;;;;;7.40;99.90;;;;;;5008559;28;19925;-93
2022/12/27 00:05:09;;;;;;;;;;;7.40;99.90;;;;;;5011803;28;19925;-92
2022/12/27 00:07:37;;;;;;;;;;;7.30;99.90;;;;;;5011581;28;20372;-93
2022/12/27 00:10:04;;;;;;;;;;;7.30;99.90;;;;;;5012190;28;20031;-91
2022/12/27 00:12:31;;;;;;;;;;;7.30;99.90;;;;;;5008279;28;20020;-93
2022/12/27 00:14:57;;;;;;;;;;;7.30;99.90;;;;;;5012799;28;19936;-94
2022/12/27 00:17:24;;;;;;;;;;;7.30;99.90;;;;;;5009440;28;19930;-93
2022/12/27 00:19:51;;;;;;;;;;;7.30;99.90;;;;;;5004902;28;20291;-91
2022/12/27 00:22:19;;;;;;;;;;;7.20;99.90;;;;;;5011181;28;19925;-94
2022/12/27 00:24:47;;;;;;;;;;;7.20;99.90;;;;;;5009365;28;19941;-92
2022/12/27 00:27:13;;;;;;;;;;;7.20;99.90;;;;;;5009772;28;20414;-92
2022/12/27 00:29:40;;;;;;;;;;;7.20;99.90;;;;;;5007107;28;19926;-92
2022/12/27 00:32:07;;;;;;;;;;;7.20;99.90;;;;;;5011642;28;20016;-92
2022/12/27 00:34:34;;;;;;;;;;;7.20;99.90;;;;;;5010247;28;19935;-93
2022/12/27 00:37:01;;;;;;;;;;;7.20;99.90;;;;;;5005851;28;19926;-93
2022/12/27 00:39:29;;;;;;;;;;;7.20;99.90;;;;;;5007023;28;19925;-90
2022/12/27 00:41:56;;;;;;;;;;;7.20;99.90;;;;;;5008002;28;19979;-93
2022/12/27 00:44:23;;;;;;;;;;;7.10;99.90;;;;;;5010956;28;19949;-92
2022/12/27 00:46:50;;;;;;;;;;;7.10;99.90;;;;;;5012554;28;20016;-92
2022/12/27 00:49:16;;;;;;;;;;;7.10;99.90;;;;;;5007267;28;20019;-94
2022/12/27 00:51:43;;;;;;;;;;;7.10;99.90;;;;;;5012039;28;20363;-92
2022/12/27 00:54:10;;;;;;;;;;;7.10;99.90;;;;;;5009116;28;19952;-92
2022/12/27 00:56:38;;;;;;;;;;;7.10;99.90;;;;;;5008029;28;19932;-93
2022/12/27 00:59:05;;;;;;;;;;;7.10;99.90;;;;;;5028652;28;19936;-93
2022/12/27 01:01:33;;;;;;;;;;;7.00;99.90;;;;;;5009723;28;19972;-91
2022/12/27 01:04:00;;;;;;;;;;;7.00;99.90;;;;;;5015039;28;20384;-92
2022/12/27 01:06:30;;;;;;;;;;;7.00;99.90;;;;;;5007829;28;19926;-92
2022/12/27 01:08:58;;;;;;;;;;;7.00;99.90;;;;;;5012303;28;19930;-92
2022/12/27 01:11:25;;;;;;;;;;;7.00;99.90;;;;;;5013358;28;19926;-91
2022/12/27 01:13:55;;;;;;;;;;;7.00;99.90;;;;;;5012370;28;20293;-91
2022/12/27 01:16:23;;;;;;;;;;;7.00;99.90;;;;;;5008801;28;19949;-92
2022/12/27 01:18:50;;;;;;;;;;;7.00;99.90;;;;;;5013636;28;20036;-92
2022/12/27 01:21:18;;;;;;;;;;;6.90;99.90;;;;;;5020914;28;19925;-93
2022/12/27 01:23:47;;;;;;;;;;;6.90;99.90;;;;;;5023331;28;19933;-94
2022/12/27 01:26:16;;;;;;;;;;;6.90;99.90;;;;;;5019326;28;19948;-92
2022/12/27 01:28:44;;;;;;;;;;;6.90;99.90;;;;;;5014900;28;19926;-91
2022/12/27 01:31:13;;;;;;;;;;;6.90;99.90;;;;;;5015354;28;19929;-91
2022/12/27 01:33:40;;;;;;;;;;;6.90;99.90;;;;;;5007606;28;20024;-94
2022/12/27 01:36:08;;;;;;;;;;;6.80;99.90;;;;;;5011938;28;19965;-92
2022/12/27 01:38:35;;;;;;;;;;;6.80;99.90;;;;;;5008922;28;20017;-92
2022/12/27 01:42:50;;;;;;;;;;;6.80;99.90;;;;;;5007621;28;19972;-92
2022/12/27 01:43:48;;;;;;;;;;;6.80;99.90;;;;;;5008090;28;19925;-92
2022/12/27 01:46:17;;;;;;;;;;;6.70;99.90;;;;;;5012103;28;20008;-92
2022/12/27 01:48:44;;;;;;;;;;;6.70;99.90;;;;;;5014066;28;19925;-92
2022/12/27 01:51:11;;;;;;;;;;;6.70;99.90;;;;;;5007489;28;19936;-91
2022/12/27 01:53:39;;;;;;;;;;;6.70;99.90;;;;;;5011678;28;20103;-92
2022/12/27 01:56:09;;;;;;;;;;;6.70;99.90;;;;;;5014705;28;19926;-92
2022/12/27 01:58:39;;;;;;;;;;;6.70;99.90;;;;;;5009110;28;19937;-92
2022/12/27 02:01:07;;;;;;;;;;;6.60;99.90;;;;;;5013121;28;20007;-92
2022/12/27 02:03:38;;;;;;;;;;;6.60;99.90;;;;;;5013685;28;19925;-92
2022/12/27 02:06:06;;;;;;;;;;;6.60;99.90;;;;;;5026637;28;19925;-94
2022/12/27 02:08:39;;;;;;;;;;;6.60;99.90;;;;;;5022976;28;19926;-95
2022/12/27 02:11:08;;;;;;;;;;;6.60;99.90;;;;;;5026367;28;19929;-94
2022/12/27 02:13:35;;;;;;;;;;;;;;;;;;5027932;28;19925;-94
2022/12/27 02:16:02;;;;;;;;;;;6.50;99.90;;;;;;5023397;28;19932;-95
2022/12/27 02:18:31;;;;;;;;;;;6.50;99.90;;;;;;5021591;28;19976;-95
2022/12/27 02:21:22;;;;;;;;;;;6.50;99.90;;;;;;5025872;28;19932;-93
2022/12/27 02:24:03;;;;;;;;;;;6.50;99.90;;;;;;5006155;28;19929;-93
2022/12/27 02:26:44;;;;;;;;;;;6.50;99.90;;;;;;5015461;28;19925;-95
2022/12/27 02:29:19;;;;;;;;;;;6.40;99.90;;;;;;5025440;28;19929;-94
2022/12/27 02:31:49;;;;;;;;;;;6.40;99.90;;;;;;5036232;28;19952;-96
2022/12/27 02:34:18;;;;;;;;;;;6.30;99.90;;;;;;5023391;28;19981;-93
2022/12/27 02:36:46;;;;;;;;;;;6.30;99.90;;;;;;5027315;28;19910;-93
2022/12/27 02:39:15;;;;;;;;;;;6.30;99.90;;;;;;5022167;28;19985;-95
2022/12/27 02:53:04;;;;;;;;;;;6.20;99.90;;;;;;5017642;28;20176;-94
2022/12/27 02:55:35;;;;;;;;;;;6.20;99.90;;;;;;5038552;28;19994;-95
2022/12/27 02:58:09;;;;;;;;;;;6.20;99.90;;;;;;5026272;28;19941;-94
2022/12/27 03:03:44;;;;;;;;;;;6.10;99.90;;;;;;5030339;28;19976;-95
2022/12/27 03:06:41;;;;;;;;;;;6.10;99.90;;;;;;5035438;28;19916;-94
2022/12/27 03:17:59;;;;;;;;;;;6.10;99.90;;;;;;5037637;28;19913;-95
2022/12/27 03:26:10;;;;;;;;;;;5.90;99.90;;;;;;4990984;28;19910;-95
2022/12/27 03:34:34;;;;;;;;;;;5.70;99.90;;;;;;5033178;28;19914;-94
2022/12/27 03:39:51;;;;;;;;;;;5.70;99.90;;;;;;5032894;28;19920;-94
2022/12/27 03:45:08;;;;;;;;;;;5.60;99.90;;;;;;5038249;28;20021;-94
2022/12/27 03:47:36;;;;;;;;;;;5.70;99.90;;;;;;5027868;28;19914;-94
2022/12/27 03:50:06;;;;;;;;;;;5.60;99.90;;;;;;5037138;28;19925;-94
2022/12/27 03:52:34;;;;;;;;;;;;;;;;;;5030252;28;19936;-95
2022/12/27 03:55:02;;;;;;;;;;;5.60;99.90;;;;;;5032074;28;19949;-96
2022/12/27 03:57:29;;;;;;;;;;;5.60;99.90;;;;;;5036795;28;19910;-94
2022/12/27 03:59:56;;;;;;;;;;;5.60;99.90;;;;;;5036932;28;21131;-95
2022/12/27 04:02:23;;;;;;;;;;;5.50;99.90;;;;;;5033650;28;19929;-95
2022/12/27 04:04:50;;;;;;;;;;;5.50;99.90;;;;;;5029317;28;19914;-94
2022/12/27 04:07:18;;;;;;;;;;;5.50;99.90;;;;;;5035400;28;19929;-95
2022/12/27 04:34:41;;;;;;;;;;;5.40;99.90;;;;;;5030472;28;19913;-96
2022/12/27 04:37:07;;;;;;;;;;;5.40;99.90;;;;;;5035502;28;19913;-94
2022/12/27 04:39:36;;;;;;;;;;;5.40;99.90;;;;;;5028337;28;19917;-93
2022/12/27 04:55:54;;;;;;;;;;;5.30;99.90;;;;;;5028563;28;19925;-95
2022/12/27 04:58:21;;;;;;;;;;;5.30;99.90;;;;;;5028118;28;19932;-94
2022/12/27 05:03:33;;;;;;;;;;;5.30;99.90;;;;;;5031466;28;19909;-94
2022/12/27 05:06:00;;;;;;;;;;;5.20;99.90;;;;;;5032027;28;19914;-93
2022/12/27 05:14:02;;;;;;;;;;;5.20;99.90;;;;;;5027559;28;19929;-86
2022/12/27 05:16:30;;;;;;;;;;;5.20;99.90;;;;;;5029239;28;19909;-93
2022/12/27 05:18:56;;;;;;;;;;;5.20;99.90;;;;;;5032677;28;19914;-93
2022/12/27 05:21:24;;;;;;;;;;;5.20;99.90;;;;;;5025867;28;19980;-92
2022/12/27 05:26:37;;;;;;;;;;;5.10;99.90;;;;;;5028561;28;19961;-95
2022/12/27 05:29:04;;;;;;;;;;;5.10;99.90;;;;;;5028675;28;19917;-93
2022/12/27 05:31:33;;;;;;;;;;;5.10;99.90;;;;;;5028226;28;19944;-95
2022/12/27 05:34:00;;;;;;;;;;;5.10;99.90;;;;;;5025235;28;19929;-92
2022/12/27 05:36:27;;;;;;;;;;;5.10;99.90;;;;;;5025720;28;20154;-93
2022/12/27 05:38:54;;;;;;;;;;;5.10;99.90;;;;;;5030444;28;19910;-94
2022/12/27 05:41:21;;;;;;;;;;;5.10;99.90;;;;;;5027703;28;19913;-94
2022/12/27 05:43:49;;;;;;;;;;;5.00;99.90;;;;;;5031720;28;19909;-91
2022/12/27 05:46:17;;;;;;;;;;;5.00;99.90;;;;;;5025884;28;19920;-94
2022/12/27 05:48:44;;;;;;;;;;;5.00;99.90;;;;;;5028376;28;19941;-93
2022/12/27 05:51:14;;;;;;;;;;;5.00;99.90;;;;;;5011979;28;22104;-95
2022/12/27 05:53:41;;;;;;;;;;;5.00;99.90;;;;;;5024829;28;19925;-88
2022/12/27 05:56:13;;;;;;;;;;;5.00;99.90;;;;;;5008481;28;19913;-95
2022/12/27 05:58:40;;;;;;;;;;;5.00;99.90;;;;;;5028796;28;19921;-94
2022/12/27 06:01:09;;;;;;;;;;;5.00;99.90;;;;;;5020599;28;19913;-95
2022/12/27 06:03:37;;;;;;;;;;;4.90;99.90;;;;;;5018516;28;19910;-94
2022/12/27 06:06:05;;;;;;;;;;;4.90;99.90;;;;;;5021211;28;19913;-93
2022/12/27 06:08:32;;;;;;;;;;;4.90;99.90;;;;;;5034517;28;19914;-92
2022/12/27 06:11:03;;;;;;;;;;;4.90;99.90;;;;;;5031918;28;19933;-93
2022/12/27 06:13:31;;;;;;;;;;;4.90;99.90;;;;;;5034858;28;19914;-94
2022/12/27 06:15:59;;;;;;;;;;;4.90;99.90;;;;;;5035560;28;19926;-93
2022/12/27 06:18:28;;;;;;;;;;;4.90;99.90;;;;;;5031009;28;19941;-93
2022/12/27 06:20:55;;;;;;;;;;;4.80;99.90;;;;;;5033600;28;19956;-92
2022/12/27 06:23:21;;;;;;;;;;;4.80;99.90;;;;;;5032824;28;19913;-93
2022/12/27 06:25:49;;;;;;;;;;;4.80;99.90;;;;;;5031739;28;19913;-92
2022/12/27 06:28:15;;;;;;;;;;;4.80;99.90;;;;;;5026613;28;19913;-92
2022/12/27 06:30:42;;;;;;;;;;;4.80;99.90;;;;;;5035325;28;19925;-95
2022/12/27 06:33:09;;;;;;;;;;;4.80;99.90;;;;;;5030168;28;19909;-94
2022/12/27 06:35:38;;;;;;;;;;;4.80;99.90;;;;;;5045628;28;19993;-92
2022/12/27 06:38:05;;;;;;;;;;;4.70;99.90;;;;;;5034069;28;19917;-93
2022/12/27 06:40:32;;;;;;;;;;;4.70;99.90;;;;;;5032171;28;19924;-94
2022/12/27 06:42:59;;;;;;;;;;;4.70;99.90;;;;;;5033408;28;19937;-93
2022/12/27 06:45:26;;;;;;;;;;;4.70;99.90;;;;;;5033389;28;19910;-94
2022/12/27 06:47:53;;;;;;;;;;;4.70;99.90;;;;;;5052323;28;19933;-93
2022/12/27 06:50:20;;;;;;;;;;;4.70;99.90;;;;;;5032217;28;19937;-94
2022/12/27 06:52:48;;;;;;;;;;;4.70;99.90;;;;;;5030791;28;20656;-93
2022/12/27 06:55:15;;;;;;;;;;;4.70;99.90;;;;;;5030152;28;19926;-93
2022/12/27 06:57:42;;;;;;;;;;;4.60;99.90;;;;;;5035328;28;19913;-94
2022/12/27 07:00:12;;;;;;;;;;;4.70;99.90;;;;;;5034860;28;19940;-94
2022/12/27 07:02:39;;;;;;;;;;;4.60;99.90;;;;;;5030057;28;19914;-93
2022/12/27 07:05:06;;;;;;;;;;;4.60;99.90;;;;;;5033958;28;19932;-93
2022/12/27 07:07:33;;;;;;;;;;;4.60;99.90;;;;;;5035210;28;19988;-95
2022/12/27 07:10:02;;;;;;;;;;;4.60;99.90;;;;;;5035315;28;19913;-93
2022/12/27 07:12:29;;;;;;;;;;;4.60;99.90;;;;;;5033254;28;19925;-93
2022/12/27 07:14:56;;;;;;;;;;;4.60;99.90;;;;;;5034740;28;19936;-94
2022/12/27 07:17:23;;;;;;;;;;;4.60;99.90;;;;;;5035695;28;19913;-94
2022/12/27 07:19:52;;;;;;;;;;;4.50;99.90;;;;;;5029747;28;19934;-93
2022/12/27 07:22:20;;;;;;;;;;;4.50;99.90;;;;;;5034439;28;19980;-93
2022/12/27 07:24:47;;;;;;;;;;;4.60;99.90;;;;;;5034279;28;20094;-93
2022/12/27 07:27:16;;;;;;;;;;;4.60;99.90;;;;;;5038614;28;19932;-93
2022/12/27 07:29:45;;;;;;;;;;;4.50;99.90;;;;;;5037918;28;19928;-92
2022/12/27 07:32:13;;;;;;;;;;;;;;;;;;5040437;28;19909;-93
2022/12/27 07:34:41;;;;;;;;;;;4.50;99.90;;;;;;5035271;28;19917;-95
2022/12/27 07:37:08;;;;;;;;;;;4.50;99.90;;;;;;5038265;28;19921;-94
2022/12/27 07:39:35;;;;;;;;;;;4.50;99.90;;;;;;5036349;28;19909;-94
2022/12/27 07:42:02;;;;;;;;;;;4.50;99.90;;;;;;5038509;28;19925;-93
2022/12/27 07:44:39;;;;;;;;;;;4.50;99.90;;;;;;5038143;28;19925;-94
2022/12/27 07:47:06;;;;;;;;;;;4.50;99.90;;;;;;5033440;23;19933;-83
2022/12/27 07:49:33;;;;;;;;;;;4.70;99.90;;;;;;5013720;28;19953;-84
2022/12/27 07:52:00;;;;;;;;;;;;;;;;;;5018875;28;19930;-83
2022/12/27 07:54:27;;;;;;;;;;;4.40;99.90;;;;;;5014694;28;19926;-87
2022/12/27 07:56:54;;;;;;;;;;;4.40;99.90;;;;;;4995699;28;20024;-85
2022/12/27 07:59:22;;;;;;;;;;;4.40;99.90;;;;;;4999228;28;19941;-86
2022/12/27 08:02:06;;;;;;;;;;;4.40;99.90;;;;;;4991784;28;19933;-83
2022/12/27 08:04:34;;;;;;;;;;;4.40;99.90;;;;;;5002967;28;19977;-83
2022/12/27 08:07:02;;;;;;;;;;;4.40;99.90;;;;;;4991348;28;19967;-84
2022/12/27 08:09:31;;;;;;;;;;;4.40;99.90;;;;;;5004799;28;19932;-83
2022/12/27 08:11:57;;;;;;;;;;;4.40;99.90;;;;;;4987605;28;19940;-85
2022/12/27 08:14:27;;;;;;;;;;;4.30;99.90;;;;;;4993949;28;19925;-85
2022/12/27 08:16:58;;;;;;;;;;;4.40;99.90;;;;;;4996104;28;19926;-84
2022/12/27 08:19:26;;;;;;;;;;;4.30;99.90;;;;;;5009885;28;19993;-84
2022/12/27 08:21:53;;;;;;;;;;;4.30;99.90;;;;;;4985389;28;19980;-84
2022/12/27 08:24:20;;;;;;;;;;;4.30;99.90;;;;;;5002625;28;19976;-83
2022/12/27 08:26:47;;;;;;;;;;;4.30;99.90;;;;;;4989957;28;19926;-86
2022/12/27 08:29:14;;;;;;;;;;;4.30;99.90;;;;;;5001804;28;19949;-84
2022/12/27 08:31:41;;;;;;;;;;;4.30;99.90;;;;;;5010046;28;20279;-85
2022/12/27 08:34:09;;;;;;;;;;;4.30;99.90;;;;;;5007337;28;19926;-83
2022/12/27 08:36:36;;;;;;;;;;;4.20;99.90;;;;;;5004318;28;19930;-83
2022/12/27 08:39:04;;;;;;;;;;;4.20;99.90;;;;;;5003838;28;19937;-83
2022/12/27 08:41:31;;;;;;;;;;;4.30;99.90;;;;;;4993044;28;19926;-84
2022/12/27 08:43:58;;;;;;;;;;;4.20;99.90;;;;;;4997973;28;20415;-86
2022/12/27 08:46:25;;;;;;;;;;;4.20;99.90;;;;;;4991741;28;20285;-84
2022/12/27 08:48:52;;;;;;;;;;;4.20;99.90;;;;;;5011178;28;20293;-87
2022/12/27 08:51:20;;;;;;;;;;;4.20;99.90;;;;;;5002838;28;19925;-83
2022/12/27 08:53:48;;;;;;;;;;;4.20;99.90;;;;;;4992552;28;20415;-83
2022/12/27 08:56:15;;;;;;;;;;;4.20;99.90;;;;;;5003822;28;20061;-83
2022/12/27 08:58:42;;;;;;;;;;;4.20;99.90;;;;;;4984855;28;19926;-85
2022/12/27 09:01:10;;;;;;;;;;;4.20;99.90;;;;;;4992207;28;19984;-83
2022/12/27 09:03:37;;;;;;;;;;;4.10;99.90;;;;;;4995515;28;20384;-84
2022/12/27 09:06:08;;;;;;;;;;;4.20;99.90;;;;;;4994106;28;19925;-84
2022/12/27 09:08:36;;;;;;;;;;;4.10;99.90;;;;;;4987081;28;19926;-83
2022/12/27 09:11:13;;;;;;;;;;;4.20;99.90;;;;;;4995876;28;20018;-84
2022/12/27 09:13:40;;;;;;;;;;;4.10;99.90;;;;;;5010620;28;19926;-85
2022/12/27 09:16:09;;;;;;;;;;;4.10;99.90;;;;;;4990440;28;19957;-83
2022/12/27 09:18:36;;;;;;;;;;;4.10;99.90;;;;;;5007814;28;19936;-85
2022/12/27 09:21:05;;;;;;;;;;;4.10;99.90;;;;;;4991817;28;19940;-83
2022/12/27 09:23:31;;;;;;;;;;;4.10;99.90;;;;;;5000246;28;20519;-83
2022/12/27 09:26:03;;;;;;;;;;;4.10;99.90;;;;;;5004956;28;19971;-83
2022/12/27 09:28:31;;;;;;;;;;;4.20;99.90;;;;;;4986407;28;19933;-83
2022/12/27 09:30:58;;;;;;;;;;;4.10;99.90;;;;;;4988718;28;19933;-83
2022/12/27 09:33:25;;;;;;;;;;;4.10;99.90;;;;;;5001374;28;19934;-83
2022/12/27 09:35:52;;;;;;;;;;;4.10;99.90;;;;;;5001452;28;19926;-83
2022/12/27 09:38:19;;;;;;;;;;;4.10;99.90;;;;;;4992872;28;19948;-85
2022/12/27 09:40:52;;;;;;;;;;;4.10;99.90;;;;;;4987983;28;19951;-84
2022/12/27 09:43:22;;;;;;;;;;;4.10;99.90;;;;;;5007312;28;19945;-83
2022/12/27 09:45:51;;;;;;;;;;;4.10;99.90;;;;;;5000322;28;19980;-83
2022/12/27 09:48:22;;;;;;;;;;;4.10;99.90;;;;;;4984365;28;19969;-83
2022/12/27 09:50:51;;;;;;;;;;;4.10;99.90;;;;;;5009991;28;19929;-83
2022/12/27 09:53:21;;;;;;;;;;;4.10;99.90;;;;;;5004070;28;19932;-86
2022/12/27 09:55:50;;;;;;;;;;;4.10;99.90;;;;;;4999055;28;19953;-83
2022/12/27 09:58:28;;;;;;;;;;;4.10;99.90;;;;;;4988484;28;20384;-83
2022/12/27 10:00:54;;;;;;;;;;;4.10;99.90;;;;;;4985755;28;19961;-83
2022/12/27 10:03:24;;;;;;;;;;;4.10;99.90;;;;;;4986708;28;19933;-84
2022/12/27 10:05:53;;;;;;;;;;;4.10;99.90;;;;;;4986169;28;19926;-83
2022/12/27 10:08:25;;;;;;;;;;;4.10;99.90;;;;;;4984825;28;19925;-85
2022/12/27 10:10:55;;;;;;;;;;;4.10;99.90;;;;;;4992055;28;19926;-83
2022/12/27 10:13:33;;;;;;;;;;;4.10;99.90;;;;;;4983180;28;19926;-83
2022/12/27 10:16:02;;;;;;;;;;;4.10;99.90;;;;;;4987032;28;19930;-85
2022/12/27 10:18:34;;;;;;;;;;;4.10;99.90;;;;;;4988092;28;19925;-83
2022/12/27 10:21:05;;;;;;;;;;;4.10;99.90;;;;;;4988819;28;21440;-82
2022/12/27 10:23:33;;;;;;;;;;;4.10;99.90;;;;;;4997037;28;20295;-83
2022/12/27 10:26:02;;;;;;;;;;;4.10;99.90;;;;;;4985668;28;19925;-83
2022/12/27 10:28:36;;;;;;;;;;;4.10;99.90;;;;;;4986769;28;19938;-84
2022/12/27 10:31:03;;;;;;;;;;;4.10;99.90;;;;;;4988160;28;19926;-87
2022/12/27 10:33:31;;;;;;;;;;;4.10;99.90;;;;;;4994164;28;19925;-83
2022/12/27 10:35:58;;;;;;;;;;;4.10;99.90;;;;;;4995943;28;19933;-83
2022/12/27 10:38:28;;;;;;;;;;;4.10;99.90;;;;;;4991928;28;20470;-84
2022/12/27 10:40:57;;;;;;;;;;;4.00;99.90;;;;;;5002001;28;20387;-82
2022/12/27 10:43:28;;;;;;;;;;;4.10;99.90;;;;;;4990483;28;20299;-83
2022/12/27 10:46:10;;;;;;;;;;;4.10;99.90;;;;;;4986802;28;19925;-87
2022/12/27 10:48:37;;;;;;;;;;;4.10;99.90;;;;;;4997886;28;20065;-84
2022/12/27 10:51:07;;;;;;;;;;;4.10;99.90;;;;;;4985257;28;19926;-86
2022/12/27 10:53:36;;;;;;;;;;;4.10;99.90;;;;;;4995380;28;19985;-82
2022/12/27 10:56:14;;;;;;;;;;;4.10;99.90;;;;;;4993198;28;19937;-84
2022/12/27 10:58:42;;;;;;;;;;;4.10;99.90;;;;;;4999949;28;19926;-83
2022/12/27 11:01:22;;;;;;;;;;;4.00;99.90;;;;;;5000092;28;19933;-84
2022/12/27 11:03:49;;;;;;;;;;;4.10;99.90;;;;;;5004304;28;19932;-87
2022/12/27 11:06:17;;;;;;;;;;;4.00;99.90;;;;;;5002199;28;19933;-85
2022/12/27 11:08:44;;;;;;;;;;;4.00;99.90;;;;;;4996824;28;19956;-83
2022/12/27 11:11:12;;;;;;;;;;;4.10;99.90;;;;;;4987433;28;19932;-85
2022/12/27 11:13:39;;;;;;;;;;;4.00;99.90;;;;;;5009845;28;19926;-83
2022/12/27 11:16:11;;;;;;;;;;;4.00;99.90;;;;;;5009625;28;19925;-83
2022/12/27 11:18:42;;;;;;;;;;;4.10;99.90;;;;;;5007017;28;20479;-83
2022/12/27 11:21:11;;;;;;;;;;;4.00;99.90;;;;;;5003750;28;19929;-83
2022/12/27 11:23:43;;;;;;;;;;;4.10;99.90;;;;;;4985151;28;20592;-82
2022/12/27 11:26:17;;;;;;;;;;;4.10;99.90;;;;;;4989154;28;20653;-87
2022/12/27 11:28:45;;;;;;;;;;;4.10;99.90;;;;;;5009350;28;19926;-84
2022/12/27 11:31:14;;;;;;;;;;;4.10;99.90;;;;;;4990649;28;19926;-83
2022/12/27 11:33:45;;;;;;;;;;;4.10;99.90;;;;;;4991184;28;19930;-83
2022/12/27 11:36:13;;;;;;;;;;;4.10;99.90;;;;;;5007768;28;19949;-83
2022/12/27 11:38:43;;;;;;;;;;;4.10;99.90;;;;;;4991667;28;20458;-83
2022/12/27 11:41:12;;;;;;;;;;;4.10;99.90;;;;;;5009584;28;20408;-84
2022/12/27 11:43:44;;;;;;;;;;;4.10;99.90;;;;;;4993924;28;19984;-83
2022/12/27 11:46:16;;;;;;;;;;;4.20;99.90;;;;;;5003663;28;19948;-83
2022/12/27 11:48:45;;;;;;;;;;;4.10;99.90;;;;;;4995460;28;20414;-83
2022/12/27 11:51:30;;;;;;;;;;;4.20;99.90;;;;;;4999003;28;19926;-83
2022/12/27 11:54:11;;;;;;;;;;;4.10;99.90;;;;;;4998136;28;19933;-84
2022/12/27 11:56:40;;;;;;;;;;;4.10;99.90;;;;;;4996068;28;19937;-83
2022/12/27 11:59:22;;;;;;;;;;;4.20;99.90;;;;;;4987405;28;19926;-86
2022/12/27 12:01:57;;;;;;;;;;;4.20;99.90;;;;;;4985858;28;19929;-83
2022/12/27 12:04:43;;;;;;;;;;;4.20;99.90;;;;;;4999999;28;19930;-82
2022/12/27 12:07:15;;;;;;;;;;;4.20;99.90;;;;;;4995047;28;19926;-83
2022/12/27 12:09:53;;;;;;;;;;;4.20;99.90;;;;;;4984776;28;19948;-83
2022/12/27 12:12:38;;;;;;;;;;;4.30;99.90;;;;;;4998652;28;19930;-83
2022/12/27 12:15:23;;;;;;;;;;;4.30;99.90;;;;;;5006275;28;19934;-83
2022/12/27 12:17:59;;;;;;;;;;;4.30;99.90;;;;;;4995181;28;19929;-83
2022/12/27 12:20:44;;;;;;;;;;;4.30;99.90;;;;;;4989581;28;19940;-83
2022/12/27 12:23:15;;;;;;;;;;;4.30;99.90;;;;;;4954182;28;19926;-84
2022/12/27 12:25:56;;;;;;;;;;;4.30;99.90;;;;;;5009207;28;20012;-83
2022/12/27 12:28:38;;;;;;;;;;;4.30;99.90;;;;;;4997309;28;19930;-83
2022/12/27 12:31:11;;;;;;;;;;;4.30;99.90;;;;;;5003420;28;20435;-85
2022/12/27 12:33:44;;;;;;;;;;;4.30;99.90;;;;;;5001444;28;19929;-83
2022/12/27 12:36:25;;;;;;;;;;;4.30;99.90;;;;;;5004798;28;19933;-83
2022/12/27 12:38:58;;;;;;;;;;;4.30;99.90;;;;;;4981079;28;19992;-83
2022/12/27 12:41:47;;;;;;;;;;;4.40;99.90;;;;;;4995986;28;20423;-83
2022/12/27 12:44:33;;;;;;;;;;;4.40;99.90;;;;;;4984910;28;19937;-84
2022/12/27 12:47:08;;;;;;;;;;;4.40;99.90;;;;;;5001775;28;20392;-83
2022/12/27 12:49:39;;;;;;;;;;;4.40;99.90;;;;;;5008263;28;19926;-83
2022/12/27 12:52:20;;;;;;;;;;;4.40;99.90;;;;;;4987111;28;19950;-83
2022/12/27 12:55:03;;;;;;;;;;;4.40;99.90;;;;;;4982980;28;19953;-83
2022/12/27 12:57:35;;;;;;;;;;;4.40;99.90;;;;;;5002912;28;19940;-83
2022/12/27 13:00:07;;;;;;;;;;;4.40;99.90;;;;;;4999313;28;19925;-83
2022/12/27 13:02:48;;;;;;;;;;;4.40;99.90;;;;;;4981323;28;19925;-84
2022/12/27 13:05:18;;;;;;;;;;;4.40;99.90;;;;;;5003766;28;19926;-83
2022/12/27 13:07:53;;;;;;;;;;;4.40;99.90;;;;;;4997400;28;20031;-84
2022/12/27 13:10:32;;;;;;;;;;;4.50;99.90;;;;;;4994595;28;20268;-83
2022/12/27 13:13:01;;;;;;;;;;;4.50;99.90;;;;;;4997155;28;19930;-84
2022/12/27 13:15:33;;;;;;;;;;;4.40;99.90;;;;;;4985266;28;20308;-83
2022/12/27 13:18:04;;;;;;;;;;;4.50;99.90;;;;;;4984145;28;19996;-84
2022/12/27 13:20:55;;;;;;;;;;;4.50;99.90;;;;;;4981395;28;20458;-83
2022/12/27 13:23:27;;;;;;;;;;;4.50;99.90;;;;;;4985510;28;19933;-82
2022/12/27 13:26:01;;;;;;;;;;;4.50;99.90;;;;;;4986478;28;19925;-83
2022/12/27 13:28:32;;;;;;;;;;;4.50;99.90;;;;;;5003648;28;19949;-84
2022/12/27 13:31:02;;;;;;;;;;;4.50;99.90;;;;;;5007491;28;19937;-87
2022/12/27 13:33:33;;;;;;;;;;;4.50;99.90;;;;;;4992304;28;20392;-85
2022/12/27 13:36:11;;;;;;;;;;;4.50;99.90;;;;;;4993980;28;19925;-83
2022/12/27 13:38:49;;;;;;;;;;;4.50;99.90;;;;;;4995448;28;19925;-84
2022/12/27 13:41:32;;;;;;;;;;;4.50;99.90;;;;;;4989269;28;20380;-88
2022/12/27 13:44:20;;;;;;;;;;;4.50;99.90;;;;;;5007095;28;19929;-83
2022/12/27 13:46:57;;;;;;;;;;;4.50;99.90;;;;;;4995476;28;19933;-82
2022/12/27 13:49:35;;;;;;;;;;;4.50;99.90;;;;;;4987884;28;19934;-84
2022/12/27 13:52:07;;;;;;;;;;;4.60;99.90;;;;;;4991688;28;19934;-89
2022/12/27 13:54:53;;;;;;;;;;;4.60;99.90;;;;;;4994402;28;20387;-83
2022/12/27 13:57:30;;;;;;;;;;;4.60;99.90;;;;;;4983107;28;19937;-83
2022/12/27 14:00:03;;;;;;;;;;;4.60;99.90;;;;;;4993390;28;19965;-87
2022/12/27 14:02:56;;;;;;;;;;;4.60;99.90;;;;;;4996977;28;20355;-83
2022/12/27 14:05:38;;;;;;;;;;;4.60;99.90;;;;;;4981265;28;20281;-84
2022/12/27 14:08:12;;;;;;;;;;;4.60;99.90;;;;;;5000133;28;19930;-83
2022/12/27 14:10:42;;;;;;;;;;;4.60;99.90;;;;;;4996415;28;19934;-82
2022/12/27 14:13:12;;;;;;;;;;;4.70;99.90;;;;;;5005937;28;19929;-82
2022/12/27 14:15:51;;;;;;;;;;;4.70;99.90;;;;;;4984808;28;20022;-84
2022/12/27 14:18:30;;;;;;;;;;;4.70;99.90;;;;;;4997883;28;19933;-83
2022/12/27 14:21:11;;;;;;;;;;;4.70;99.90;;;;;;4994073;28;19926;-83
2022/12/27 14:23:49;;;;;;;;;;;4.70;99.90;;;;;;4980434;28;19953;-83
2022/12/27 14:26:29;;;;;;;;;;;4.70;99.90;;;;;;4992798;28;20569;-87
2022/12/27 14:29:19;;;;;;;;;;;4.70;99.90;;;;;;4977423;28;19934;-82
2022/12/27 14:31:58;;;;;;;;;;;4.70;99.90;;;;;;4980280;28;19926;-85
2022/12/27 14:34:44;;;;;;;;;;;4.70;99.90;;;;;;4990982;28;19926;-84
2022/12/27 14:37:19;;;;;;;;;;;4.70;99.90;;;;;;4995108;28;19997;-82
2022/12/27 14:39:55;;;;;;;;;;;4.70;99.90;;;;;;4998680;28;20434;-84
2022/12/27 14:42:36;;;;;;;;;;;4.70;99.90;;;;;;4997018;28;20331;-84
2022/12/27 14:45:30;;;;;;;;;;;4.70;99.90;;;;;;4995677;28;19926;-81
2022/12/27 14:48:07;;;;;;;;;;;4.70;99.90;;;;;;4991750;28;20273;-82
2022/12/27 14:50:53;;;;;;;;;;;4.70;99.90;;;;;;4987787;28;19977;-82
2022/12/27 14:53:35;;;;;;;;;;;4.70;99.90;;;;;;4995273;28;19933;-83
2022/12/27 14:56:07;;;;;;;;;;;4.70;99.90;;;;;;4994328;28;19926;-83
2022/12/27 14:58:48;;;;;;;;;;;4.70;99.90;;;;;;4994540;28;20392;-86
2022/12/27 15:01:20;;;;;;;;;;;4.70;99.90;;;;;;4997155;28;19941;-82
2022/12/27 15:03:58;;;;;;;;;;;4.70;99.90;;;;;;4999316;28;19926;-82
2022/12/27 15:06:40;;;;;;;;;;;4.70;99.90;;;;;;4997218;28;19925;-83
2022/12/27 15:09:10;;;;;;;;;;;4.70;99.90;;;;;;4997755;28;19976;-83
2022/12/27 15:11:46;;;;;;;;;;;4.70;99.90;;;;;;4997039;28;19965;-82
2022/12/27 15:14:20;;;;;;;;;;;4.70;99.90;;;;;;4978403;28;19938;-84
2022/12/27 15:16:51;;;;;;;;;;;4.70;99.90;;;;;;5000932;28;19932;-83
2022/12/27 15:19:28;;;;;;;;;;;4.70;99.90;;;;;;4997417;28;19926;-82
2022/12/27 15:22:00;;;;;;;;;;;4.70;99.90;;;;;;4987375;28;19977;-83
2022/12/27 15:24:34;;;;;;;;;;;4.70;99.90;;;;;;4987159;28;19981;-83
2022/12/27 15:27:04;;;;;;;;;;;4.70;99.90;;;;;;4985379;28;19929;-82
2022/12/27 15:29:37;;;;;;;;;;;4.70;99.90;;;;;;4991303;28;19937;-82
2022/12/27 15:32:09;;;;;;;;;;;4.70;99.90;;;;;;4973706;28;19932;-83
2022/12/27 15:34:40;;;;;;;;;;;4.70;99.90;;;;;;4996465;28;20391;-82
2022/12/27 15:37:30;;;;;;;;;;;4.70;99.90;;;;;;4996533;28;19926;-83
2022/12/27 15:39:57;;;;;;;;;;;4.70;99.90;;;;;;4992978;28;19926;-83
2022/12/27 15:42:34;;;;;;;;;;;4.70;99.90;;;;;;4998582;28;19948;-82
2022/12/27 15:45:05;;;;;;;;;;;4.70;99.90;;;;;;5000222;28;19930;-83
2022/12/27 15:47:53;;;;;;;;;;;4.70;99.90;;;;;;4999717;28;20004;-85
2022/12/27 15:50:33;;;;;;;;;;;4.70;99.90;;;;;;4984792;28;20392;-83
2022/12/27 15:53:17;;;;;;;;;;;4.70;99.90;;;;;;4990646;28;19925;-82
2022/12/27 15:56:01;;;;;;;;;;;4.70;99.90;;;;;;4984095;28;19926;-82
2022/12/27 15:58:28;;;;;;;;;;;4.70;99.90;;;;;;5007574;28;19932;-82
2022/12/27 16:01:14;;;;;;;;;;;4.70;99.90;;;;;;5000532;28;20088;-83
2022/12/27 16:03:42;;;;;;;;;;;4.70;99.90;;;;;;4996716;28;20351;-82
2022/12/27 16:06:30;;;;;;;;;;;4.70;99.90;;;;;;4997819;28;20203;-83
2022/12/27 16:09:12;;;;;;;;;;;4.70;99.90;;;;;;4975123;28;19942;-84
2022/12/27 16:11:54;;;;;;;;;;;4.70;99.90;;;;;;4997803;28;19926;-83
2022/12/27 16:14:23;;;;;;;;;;;4.70;99.90;;;;;;4984186;28;19992;-82
2022/12/27 16:16:53;;;;;;;;;;;4.70;99.90;;;;;;4988821;28;19980;-82
2022/12/27 16:19:33;;;;;;;;;;;4.70;99.90;;;;;;4997029;28;20400;-81
2022/12/27 16:22:02;;;;;;;;;;;4.70;99.90;;;;;;4996628;28;19980;-82
2022/12/27 16:24:29;;;;;;;;;;;4.70;99.90;;;;;;4999171;28;19953;-82